sensor_id;sensor_type;location;lat;lon;timestamp;temperature;humidity
11908;DHT22;6014;47.690;9.130;2022-10-03T00:01:32;13.10;99.90
11908;DHT22;6014;47.690;9.130;2022-10-03T00:04:36;13.00;99.90
11908;DHT22;6014;47.690;9.130;2022-10-03T00:07:21;13.00;99.90
11908;DHT22;6014;47.690;9.130;2022-10-03T00:10:05;13.00;99.90
11908;DHT22;6014;47.690;9.130;2022-10-03T00:12:58;13.10;99.90
11908;DHT22;6014;47.690;9.130;2022-10-03T00:15:41;13.20;99.90
11908;DHT22;6014;47.690;9.130;2022-10-03T00:18:25;13.30;99.90
11908;DHT22;6014;47.690;9.130;2022-10-03T00:21:25;13.20;99.90
11908;DHT22;6014;47.690;9.130;2022-10-03T00:24:12;13.20;99.90
11908;DHT22;6014;47.690;9.130;2022-10-03T00:26:54;13.10;99.90
11908;DHT22;6014;47.690;9.130;2022-10-03T00:29:35;13.10;99.90
11908;DHT22;6014;47.690;9.130;2022-10-03T00:32:21;13.20;99.90
11908;DHT22;6014;47.690;9.130;2022-10-03T00:35:19;13.10;99.90
11908;DHT22;6014;47.690;9.130;2022-10-03T00:38:01;13.10;99.90
11908;DHT22;6014;47.690;9.130;2022-10-03T00:41:06;13.20;99.90
11908;DHT22;6014;47.690;9.130;2022-10-03T00:47:25;13.00;99.90
11908;DHT22;6014;47.690;9.130;2022-10-03T00:50:37;13.00;99.90
11908;DHT22;6014;47.690;9.130;2022-10-03T00:53:32;13.00;99.90
11908;DHT22;6014;47.690;9.130;2022-10-03T00:56:22;13.00;99.90
11908;DHT22;6014;47.690;9.130;2022-10-03T00:59:23;12.90;99.90
11908;DHT22;6014;47.690;9.130;2022-10-03T01:02:22;12.90;99.90
11908;DHT22;6014;47.690;9.130;2022-10-03T01:05:09;12.90;99.90
11908;DHT22;6014;47.690;9.130;2022-10-03T01:08:07;12.90;99.90
11908;DHT22;6014;47.690;9.130;2022-10-03T01:11:08;12.80;99.90
11908;DHT22;6014;47.690;9.130;2022-10-03T01:13:52;12.80;99.90
11908;DHT22;6014;47.690;9.130;2022-10-03T01:16:32;12.90;99.90
11908;DHT22;6014;47.690;9.130;2022-10-03T01:19:26;12.90;99.90
11908;DHT22;6014;47.690;9.130;2022-10-03T01:22:19;12.90;99.90
11908;DHT22;6014;47.690;9.130;2022-10-03T01:24:58;12.80;99.90
11908;DHT22;6014;47.690;9.130;2022-10-03T01:27:39;12.90;99.90
11908;DHT22;6014;47.690;9.130;2022-10-03T01:30:32;12.80;99.90
11908;DHT22;6014;47.690;9.130;2022-10-03T01:33:07;12.90;99.90
11908;DHT22;6014;47.690;9.130;2022-10-03T01:36:00;12.90;99.90
11908;DHT22;6014;47.690;9.130;2022-10-03T01:38:33;12.80;99.90
11908;DHT22;6014;47.690;9.130;2022-10-03T01:41:16;12.70;99.90
11908;DHT22;6014;47.690;9.130;2022-10-03T01:43:55;12.70;99.90
11908;DHT22;6014;47.690;9.130;2022-10-03T01:46:36;12.60;99.90
11908;DHT22;6014;47.690;9.130;2022-10-03T01:49:12;12.60;99.90
11908;DHT22;6014;47.690;9.130;2022-10-03T01:51:51;12.60;99.90
11908;DHT22;6014;47.690;9.130;2022-10-03T01:54:35;12.60;99.90
11908;DHT22;6014;47.690;9.130;2022-10-03T01:57:14;12.70;99.90
11908;DHT22;6014;47.690;9.130;2022-10-03T01:59:52;12.70;99.90
11908;DHT22;6014;47.690;9.130;2022-10-03T02:02:30;12.70;99.90
11908;DHT22;6014;47.690;9.130;2022-10-03T02:05:07;12.70;99.90
11908;DHT22;6014;47.690;9.130;2022-10-03T02:07:43;12.70;99.90
11908;DHT22;6014;47.690;9.130;2022-10-03T02:10:31;12.60;99.90
11908;DHT22;6014;47.690;9.130;2022-10-03T02:13:08;12.50;99.90
11908;DHT22;6014;47.690;9.130;2022-10-03T02:15:47;12.40;99.90
11908;DHT22;6014;47.690;9.130;2022-10-03T02:18:37;12.40;99.90
11908;DHT22;6014;47.690;9.130;2022-10-03T02:21:14;12.40;99.90
11908;DHT22;6014;47.690;9.130;2022-10-03T02:23:45;12.40;99.90
11908;DHT22;6014;47.690;9.130;2022-10-03T02:26:32;12.40;99.90
11908;DHT22;6014;47.690;9.130;2022-10-03T02:29:38;12.40;99.90
11908;DHT22;6014;47.690;9.130;2022-10-03T02:32:51;12.30;99.90
11908;DHT22;6014;47.690;9.130;2022-10-03T02:36:04;12.20;99.90
11908;DHT22;6014;47.690;9.130;2022-10-03T02:39:08;12.10;99.90
11908;DHT22;6014;47.690;9.130;2022-10-03T02:45:22;12.10;99.90
11908;DHT22;6014;47.690;9.130;2022-10-03T02:48:20;12.10;99.90
11908;DHT22;6014;47.690;9.130;2022-10-03T02:51:41;12.00;99.90
11908;DHT22;6014;47.690;9.130;2022-10-03T02:54:52;12.10;99.90
11908;DHT22;6014;47.690;9.130;2022-10-03T02:57:48;12.00;99.90
11908;DHT22;6014;47.690;9.130;2022-10-03T03:07:43;12.00;99.90
11908;DHT22;6014;47.690;9.130;2022-10-03T03:11:00;12.10;99.90
11908;DHT22;6014;47.690;9.130;2022-10-03T03:14:26;12.00;99.90
11908;DHT22;6014;47.690;9.130;2022-10-03T03:17:16;12.10;99.90
11908;DHT22;6014;47.690;9.130;2022-10-03T03:20:01;12.10;99.90
11908;DHT22;6014;47.690;9.130;2022-10-03T03:22:56;12.20;99.90
11908;DHT22;6014;47.690;9.130;2022-10-03T03:26:04;12.10;99.90
11908;DHT22;6014;47.690;9.130;2022-10-03T03:29:01;11.90;99.90
11908;DHT22;6014;47.690;9.130;2022-10-03T03:31:45;11.90;99.90
11908;DHT22;6014;47.690;9.130;2022-10-03T03:34:26;11.90;99.90
11908;DHT22;6014;47.690;9.130;2022-10-03T03:37:01;11.90;99.90
11908;DHT22;6014;47.690;9.130;2022-10-03T03:39:45;12.00;99.90
11908;DHT22;6014;47.690;9.130;2022-10-03T03:42:36;12.10;99.90
11908;DHT22;6014;47.690;9.130;2022-10-03T03:45:40;12.10;99.90
11908;DHT22;6014;47.690;9.130;2022-10-03T03:48:29;12.10;99.90
11908;DHT22;6014;47.690;9.130;2022-10-03T03:51:31;12.10;99.90
11908;DHT22;6014;47.690;9.130;2022-10-03T03:57:54;12.10;99.90
11908;DHT22;6014;47.690;9.130;2022-10-03T04:00:39;12.20;99.90
11908;DHT22;6014;47.690;9.130;2022-10-03T04:03:40;12.20;99.90
11908;DHT22;6014;47.690;9.130;2022-10-03T04:06:28;12.10;99.90
11908;DHT22;6014;47.690;9.130;2022-10-03T04:09:19;12.10;99.90
11908;DHT22;6014;47.690;9.130;2022-10-03T04:12:05;12.10;99.90
11908;DHT22;6014;47.690;9.130;2022-10-03T04:15:10;12.10;99.90
11908;DHT22;6014;47.690;9.130;2022-10-03T04:18:24;12.10;99.90
11908;DHT22;6014;47.690;9.130;2022-10-03T04:21:58;12.10;99.90
11908;DHT22;6014;47.690;9.130;2022-10-03T04:25:09;12.00;99.90
11908;DHT22;6014;47.690;9.130;2022-10-03T04:31:24;11.80;99.90
11908;DHT22;6014;47.690;9.130;2022-10-03T04:34:15;11.80;99.90
11908;DHT22;6014;47.690;9.130;2022-10-03T04:37:21;11.80;99.90
11908;DHT22;6014;47.690;9.130;2022-10-03T04:40:16;11.70;99.90
11908;DHT22;6014;47.690;9.130;2022-10-03T04:43:01;11.60;99.90
11908;DHT22;6014;47.690;9.130;2022-10-03T04:45:39;11.50;99.90
11908;DHT22;6014;47.690;9.130;2022-10-03T04:48:27;11.40;99.90
11908;DHT22;6014;47.690;9.130;2022-10-03T04:51:18;11.30;99.90
11908;DHT22;6014;47.690;9.130;2022-10-03T04:53:52;11.20;99.90
11908;DHT22;6014;47.690;9.130;2022-10-03T04:56:39;11.10;99.90
11908;DHT22;6014;47.690;9.130;2022-10-03T05:02:25;10.80;99.90
11908;DHT22;6014;47.690;9.130;2022-10-03T05:05:38;10.70;99.90
11908;DHT22;6014;47.690;9.130;2022-10-03T05:08:27;10.50;99.90
11908;DHT22;6014;47.690;9.130;2022-10-03T05:11:19;10.40;99.90
11908;DHT22;6014;47.690;9.130;2022-10-03T05:14:01;10.30;99.90
11908;DHT22;6014;47.690;9.130;2022-10-03T05:16:39;10.30;99.90
11908;DHT22;6014;47.690;9.130;2022-10-03T05:19:33;10.20;99.90
11908;DHT22;6014;47.690;9.130;2022-10-03T05:22:19;10.20;99.90
11908;DHT22;6014;47.690;9.130;2022-10-03T05:25:00;10.20;99.90
11908;DHT22;6014;47.690;9.130;2022-10-03T05:27:43;10.20;99.90
11908;DHT22;6014;47.690;9.130;2022-10-03T05:30:28;10.20;99.90
11908;DHT22;6014;47.690;9.130;2022-10-03T05:33:24;10.00;99.90
11908;DHT22;6014;47.690;9.130;2022-10-03T05:36:12;9.90;99.90
11908;DHT22;6014;47.690;9.130;2022-10-03T05:41:54;9.80;99.90
11908;DHT22;6014;47.690;9.130;2022-10-03T05:44:54;9.80;99.90
11908;DHT22;6014;47.690;9.130;2022-10-03T05:47:36;9.70;99.90
11908;DHT22;6014;47.690;9.130;2022-10-03T05:50:40;9.70;99.90
11908;DHT22;6014;47.690;9.130;2022-10-03T05:57:44;9.70;99.90
11908;DHT22;6014;47.690;9.130;2022-10-03T06:01:16;9.60;99.90
11908;DHT22;6014;47.690;9.130;2022-10-03T06:04:22;9.60;99.90
11908;DHT22;6014;47.690;9.130;2022-10-03T06:07:17;9.60;99.90
11908;DHT22;6014;47.690;9.130;2022-10-03T06:10:14;9.60;99.90
11908;DHT22;6014;47.690;9.130;2022-10-03T06:13:02;9.70;99.90
11908;DHT22;6014;47.690;9.130;2022-10-03T06:15:58;9.80;99.90
11908;DHT22;6014;47.690;9.130;2022-10-03T06:18:56;9.80;99.90
11908;DHT22;6014;47.690;9.130;2022-10-03T06:32:09;10.50;99.90
11908;DHT22;6014;47.690;9.130;2022-10-03T06:45:00;11.10;99.90
11908;DHT22;6014;47.690;9.130;2022-10-03T06:47:56;11.20;99.90
11908;DHT22;6014;47.690;9.130;2022-10-03T06:50:49;11.00;99.90
11908;DHT22;6014;47.690;9.130;2022-10-03T06:53:32;11.10;99.90
11908;DHT22;6014;47.690;9.130;2022-10-03T06:59:47;11.40;99.90
11908;DHT22;6014;47.690;9.130;2022-10-03T07:02:55;11.50;99.90
11908;DHT22;6014;47.690;9.130;2022-10-03T07:06:01;11.60;99.90
11908;DHT22;6014;47.690;9.130;2022-10-03T07:12:43;11.90;99.90
11908;DHT22;6014;47.690;9.130;2022-10-03T07:15:50;12.20;99.90
11908;DHT22;6014;47.690;9.130;2022-10-03T07:22:36;12.60;99.90
11908;DHT22;6014;47.690;9.130;2022-10-03T07:25:42;12.80;99.90
11908;DHT22;6014;47.690;9.130;2022-10-03T07:31:58;12.80;99.90
11908;DHT22;6014;47.690;9.130;2022-10-03T07:39:05;13.20;99.90
11908;DHT22;6014;47.690;9.130;2022-10-03T07:48:31;13.40;99.90
11908;DHT22;6014;47.690;9.130;2022-10-03T07:51:35;13.40;99.90
11908;DHT22;6014;47.690;9.130;2022-10-03T07:54:31;13.60;99.90
11908;DHT22;6014;47.690;9.130;2022-10-03T07:57:41;13.60;99.90
11908;DHT22;6014;47.690;9.130;2022-10-03T08:00:23;13.50;99.90
11908;DHT22;6014;47.690;9.130;2022-10-03T08:03:35;13.30;99.90
11908;DHT22;6014;47.690;9.130;2022-10-03T08:06:32;13.30;99.90
11908;DHT22;6014;47.690;9.130;2022-10-03T08:09:34;13.50;99.90
11908;DHT22;6014;47.690;9.130;2022-10-03T08:12:55;13.50;99.90
11908;DHT22;6014;47.690;9.130;2022-10-03T08:15:53;13.80;99.90
11908;DHT22;6014;47.690;9.130;2022-10-03T08:18:57;14.30;99.90
11908;DHT22;6014;47.690;9.130;2022-10-03T08:21:51;14.20;99.90
11908;DHT22;6014;47.690;9.130;2022-10-03T08:24:57;14.40;99.90
11908;DHT22;6014;47.690;9.130;2022-10-03T08:27:47;14.50;99.90
11908;DHT22;6014;47.690;9.130;2022-10-03T08:30:42;14.90;99.90
11908;DHT22;6014;47.690;9.130;2022-10-03T08:33:51;15.20;99.90
11908;DHT22;6014;47.690;9.130;2022-10-03T08:36:54;15.30;99.90
11908;DHT22;6014;47.690;9.130;2022-10-03T08:47:09;15.80;99.90
11908;DHT22;6014;47.690;9.130;2022-10-03T08:53:46;15.80;99.90
11908;DHT22;6014;47.690;9.130;2022-10-03T08:56:31;16.00;99.90
11908;DHT22;6014;47.690;9.130;2022-10-03T08:59:33;16.10;99.90
11908;DHT22;6014;47.690;9.130;2022-10-03T09:02:41;16.10;99.90
11908;DHT22;6014;47.690;9.130;2022-10-03T09:13:31;16.40;99.90
11908;DHT22;6014;47.690;9.130;2022-10-03T09:23:25;16.20;99.90
11908;DHT22;6014;47.690;9.130;2022-10-03T09:26:16;16.10;99.90
11908;DHT22;6014;47.690;9.130;2022-10-03T09:29:40;16.10;99.90
11908;DHT22;6014;47.690;9.130;2022-10-03T09:32:44;15.90;99.90
11908;DHT22;6014;47.690;9.130;2022-10-03T09:35:47;16.10;99.90
11908;DHT22;6014;47.690;9.130;2022-10-03T09:38:54;15.80;99.90
11908;DHT22;6014;47.690;9.130;2022-10-03T09:45:12;16.00;99.90
11908;DHT22;6014;47.690;9.130;2022-10-03T09:48:15;15.80;99.90
11908;DHT22;6014;47.690;9.130;2022-10-03T09:51:31;15.70;99.90
11908;DHT22;6014;47.690;9.130;2022-10-03T10:00:40;16.50;99.90
11908;DHT22;6014;47.690;9.130;2022-10-03T10:03:50;16.30;99.90
11908;DHT22;6014;47.690;9.130;2022-10-03T10:20:12;16.40;99.90
11908;DHT22;6014;47.690;9.130;2022-10-03T10:23:11;16.50;99.90
11908;DHT22;6014;47.690;9.130;2022-10-03T10:29:52;16.90;99.90
11908;DHT22;6014;47.690;9.130;2022-10-03T10:33:12;16.70;99.90
11908;DHT22;6014;47.690;9.130;2022-10-03T10:39:53;16.80;99.90
11908;DHT22;6014;47.690;9.130;2022-10-03T11:03:41;17.20;98.10
11908;DHT22;6014;47.690;9.130;2022-10-03T11:07:03;17.10;99.20
11908;DHT22;6014;47.690;9.130;2022-10-03T11:20:11;17.50;97.40
11908;DHT22;6014;47.690;9.130;2022-10-03T11:30:19;18.40;95.30
11908;DHT22;6014;47.690;9.130;2022-10-03T11:33:24;18.60;95.50
11908;DHT22;6014;47.690;9.130;2022-10-03T11:36:46;18.40;92.70
11908;DHT22;6014;47.690;9.130;2022-10-03T11:39:44;18.40;97.60
11908;DHT22;6014;47.690;9.130;2022-10-03T11:42:28;18.00;97.00
11908;DHT22;6014;47.690;9.130;2022-10-03T11:45:19;17.90;98.80
11908;DHT22;6014;47.690;9.130;2022-10-03T11:48:00;17.60;96.90
11908;DHT22;6014;47.690;9.130;2022-10-03T11:50:42;18.00;95.10
11908;DHT22;6014;47.690;9.130;2022-10-03T11:56:18;17.80;92.60
11908;DHT22;6014;47.690;9.130;2022-10-03T11:59:07;18.00;93.30
11908;DHT22;6014;47.690;9.130;2022-10-03T12:02:05;18.00;92.50
11908;DHT22;6014;47.690;9.130;2022-10-03T12:04:53;17.40;92.60
11908;DHT22;6014;47.690;9.130;2022-10-03T12:07:40;17.40;93.20
11908;DHT22;6014;47.690;9.130;2022-10-03T12:10:35;17.00;94.60
11908;DHT22;6014;47.690;9.130;2022-10-03T12:13:13;17.00;95.80
11908;DHT22;6014;47.690;9.130;2022-10-03T12:15:45;17.00;94.40
11908;DHT22;6014;47.690;9.130;2022-10-03T12:18:21;16.70;94.20
11908;DHT22;6014;47.690;9.130;2022-10-03T12:21:08;16.30;93.80
11908;DHT22;6014;47.690;9.130;2022-10-03T12:23:53;16.10;95.00
11908;DHT22;6014;47.690;9.130;2022-10-03T12:26:39;16.30;95.90
11908;DHT22;6014;47.690;9.130;2022-10-03T12:29:12;16.40;96.90
11908;DHT22;6014;47.690;9.130;2022-10-03T12:31:46;16.80;97.10
11908;DHT22;6014;47.690;9.130;2022-10-03T12:34:41;17.30;96.40
11908;DHT22;6014;47.690;9.130;2022-10-03T12:40:15;18.30;94.10
11908;DHT22;6014;47.690;9.130;2022-10-03T12:42:58;18.20;93.10
11908;DHT22;6014;47.690;9.130;2022-10-03T12:45:35;18.10;91.90
11908;DHT22;6014;47.690;9.130;2022-10-03T12:48:26;18.20;92.20
11908;DHT22;6014;47.690;9.130;2022-10-03T12:51:24;18.40;91.10
11908;DHT22;6014;47.690;9.130;2022-10-03T12:54:10;18.30;92.40
11908;DHT22;6014;47.690;9.130;2022-10-03T12:57:05;18.40;91.30
11908;DHT22;6014;47.690;9.130;2022-10-03T12:59:51;18.30;89.80
11908;DHT22;6014;47.690;9.130;2022-10-03T13:02:27;18.70;89.80
11908;DHT22;6014;47.690;9.130;2022-10-03T13:05:24;18.70;90.50
11908;DHT22;6014;47.690;9.130;2022-10-03T13:08:02;18.90;86.80
11908;DHT22;6014;47.690;9.130;2022-10-03T13:10:38;18.80;87.50
11908;DHT22;6014;47.690;9.130;2022-10-03T13:13:27;19.00;89.00
11908;DHT22;6014;47.690;9.130;2022-10-03T13:16:12;18.80;89.10
11908;DHT22;6014;47.690;9.130;2022-10-03T13:18:54;18.70;85.40
11908;DHT22;6014;47.690;9.130;2022-10-03T13:21:55;18.50;86.00
11908;DHT22;6014;47.690;9.130;2022-10-03T13:24:36;18.70;87.90
11908;DHT22;6014;47.690;9.130;2022-10-03T13:30:16;18.60;89.10
11908;DHT22;6014;47.690;9.130;2022-10-03T13:32:51;18.40;88.20
11908;DHT22;6014;47.690;9.130;2022-10-03T13:35:30;18.10;88.40
11908;DHT22;6014;47.690;9.130;2022-10-03T13:41:32;18.30;86.50
11908;DHT22;6014;47.690;9.130;2022-10-03T13:44:14;18.60;86.40
11908;DHT22;6014;47.690;9.130;2022-10-03T13:47:01;18.60;85.20
11908;DHT22;6014;47.690;9.130;2022-10-03T13:49:49;18.40;87.60
11908;DHT22;6014;47.690;9.130;2022-10-03T13:52:25;19.00;86.30
11908;DHT22;6014;47.690;9.130;2022-10-03T13:55:16;18.90;88.90
11908;DHT22;6014;47.690;9.130;2022-10-03T14:01:29;18.50;89.20
11908;DHT22;6014;47.690;9.130;2022-10-03T14:04:22;18.40;85.10
11908;DHT22;6014;47.690;9.130;2022-10-03T14:07:15;18.20;87.70
11908;DHT22;6014;47.690;9.130;2022-10-03T14:10:03;18.50;91.30
11908;DHT22;6014;47.690;9.130;2022-10-03T14:12:48;18.60;88.70
11908;DHT22;6014;47.690;9.130;2022-10-03T14:15:45;18.80;89.10
11908;DHT22;6014;47.690;9.130;2022-10-03T14:18:24;18.10;85.80
11908;DHT22;6014;47.690;9.130;2022-10-03T14:21:29;18.10;90.40
11908;DHT22;6014;47.690;9.130;2022-10-03T14:24:30;17.90;86.20
11908;DHT22;6014;47.690;9.130;2022-10-03T14:27:36;18.10;90.10
11908;DHT22;6014;47.690;9.130;2022-10-03T14:30:19;18.10;90.50
11908;DHT22;6014;47.690;9.130;2022-10-03T14:33:09;18.00;86.90
11908;DHT22;6014;47.690;9.130;2022-10-03T14:36:07;18.10;89.40
11908;DHT22;6014;47.690;9.130;2022-10-03T14:39:25;18.10;87.60
11908;DHT22;6014;47.690;9.130;2022-10-03T14:42:13;18.20;90.50
11908;DHT22;6014;47.690;9.130;2022-10-03T14:44:55;18.30;89.30
11908;DHT22;6014;47.690;9.130;2022-10-03T14:47:31;18.40;88.60
11908;DHT22;6014;47.690;9.130;2022-10-03T14:50:04;18.10;86.20
11908;DHT22;6014;47.690;9.130;2022-10-03T14:52:41;18.10;86.80
11908;DHT22;6014;47.690;9.130;2022-10-03T14:55:16;18.00;89.70
11908;DHT22;6014;47.690;9.130;2022-10-03T14:57:51;18.10;91.10
11908;DHT22;6014;47.690;9.130;2022-10-03T15:00:44;18.30;90.10
11908;DHT22;6014;47.690;9.130;2022-10-03T15:03:31;18.60;91.10
11908;DHT22;6014;47.690;9.130;2022-10-03T15:06:21;18.90;89.60
11908;DHT22;6014;47.690;9.130;2022-10-03T15:09:17;18.80;85.50
11908;DHT22;6014;47.690;9.130;2022-10-03T15:11:58;19.30;87.90
11908;DHT22;6014;47.690;9.130;2022-10-03T15:14:35;19.40;87.10
11908;DHT22;6014;47.690;9.130;2022-10-03T15:17:25;19.60;86.00
11908;DHT22;6014;47.690;9.130;2022-10-03T15:20:06;19.90;82.10
11908;DHT22;6014;47.690;9.130;2022-10-03T15:22:46;20.00;81.20
11908;DHT22;6014;47.690;9.130;2022-10-03T15:25:18;19.60;75.00
11908;DHT22;6014;47.690;9.130;2022-10-03T15:27:53;19.90;81.30
11908;DHT22;6014;47.690;9.130;2022-10-03T15:30:26;20.00;74.70
11908;DHT22;6014;47.690;9.130;2022-10-03T15:33:05;20.50;76.40
11908;DHT22;6014;47.690;9.130;2022-10-03T15:35:40;20.10;75.60
11908;DHT22;6014;47.690;9.130;2022-10-03T15:38:15;19.70;74.40
11908;DHT22;6014;47.690;9.130;2022-10-03T15:40:50;19.70;77.70
11908;DHT22;6014;47.690;9.130;2022-10-03T15:43:31;19.50;78.30
11908;DHT22;6014;47.690;9.130;2022-10-03T15:46:05;19.30;77.10
11908;DHT22;6014;47.690;9.130;2022-10-03T15:48:42;19.00;76.50
11908;DHT22;6014;47.690;9.130;2022-10-03T15:51:17;18.70;81.20
11908;DHT22;6014;47.690;9.130;2022-10-03T15:53:48;18.20;81.30
11908;DHT22;6014;47.690;9.130;2022-10-03T15:56:22;18.00;85.70
11908;DHT22;6014;47.690;9.130;2022-10-03T15:59:00;17.90;85.70
11908;DHT22;6014;47.690;9.130;2022-10-03T16:01:33;17.90;87.70
11908;DHT22;6014;47.690;9.130;2022-10-03T16:04:11;17.80;86.70
11908;DHT22;6014;47.690;9.130;2022-10-03T16:06:45;17.60;88.70
11908;DHT22;6014;47.690;9.130;2022-10-03T16:09:27;17.50;90.50
11908;DHT22;6014;47.690;9.130;2022-10-03T16:12:20;17.30;88.70
11908;DHT22;6014;47.690;9.130;2022-10-03T16:15:14;17.10;90.70
11908;DHT22;6014;47.690;9.130;2022-10-03T16:17:48;17.10;94.60
11908;DHT22;6014;47.690;9.130;2022-10-03T16:20:28;16.90;97.60
11908;DHT22;6014;47.690;9.130;2022-10-03T16:23:09;16.70;99.90
11908;DHT22;6014;47.690;9.130;2022-10-03T16:25:53;16.60;99.90
11908;DHT22;6014;47.690;9.130;2022-10-03T16:28:28;16.40;99.90
11908;DHT22;6014;47.690;9.130;2022-10-03T16:31:02;16.30;99.90
11908;DHT22;6014;47.690;9.130;2022-10-03T16:33:36;16.30;99.90
11908;DHT22;6014;47.690;9.130;2022-10-03T16:36:09;16.20;99.90
11908;DHT22;6014;47.690;9.130;2022-10-03T16:38:58;15.90;99.90
11908;DHT22;6014;47.690;9.130;2022-10-03T16:41:39;15.70;99.90
11908;DHT22;6014;47.690;9.130;2022-10-03T16:44:22;15.40;99.90
11908;DHT22;6014;47.690;9.130;2022-10-03T16:46:54;15.00;99.90
11908;DHT22;6014;47.690;9.130;2022-10-03T16:49:35;14.80;99.90
11908;DHT22;6014;47.690;9.130;2022-10-03T16:52:29;14.50;99.90
11908;DHT22;6014;47.690;9.130;2022-10-03T16:55:04;14.20;99.90
11908;DHT22;6014;47.690;9.130;2022-10-03T16:57:42;14.10;99.90
11908;DHT22;6014;47.690;9.130;2022-10-03T17:00:19;13.80;99.90
11908;DHT22;6014;47.690;9.130;2022-10-03T17:02:53;13.70;99.90
11908;DHT22;6014;47.690;9.130;2022-10-03T17:05:22;13.50;99.90
11908;DHT22;6014;47.690;9.130;2022-10-03T17:07:58;13.30;99.90
11908;DHT22;6014;47.690;9.130;2022-10-03T17:10:52;13.10;99.90
11908;DHT22;6014;47.690;9.130;2022-10-03T17:13:25;12.90;99.90
11908;DHT22;6014;47.690;9.130;2022-10-03T17:16:01;12.80;99.90
11908;DHT22;6014;47.690;9.130;2022-10-03T17:18:40;12.50;99.90
11908;DHT22;6014;47.690;9.130;2022-10-03T17:21:20;12.40;99.90
11908;DHT22;6014;47.690;9.130;2022-10-03T17:23:59;12.30;99.90
11908;DHT22;6014;47.690;9.130;2022-10-03T17:26:40;12.20;99.90
11908;DHT22;6014;47.690;9.130;2022-10-03T17:29:15;12.10;99.90
11908;DHT22;6014;47.690;9.130;2022-10-03T17:31:51;12.00;99.90
11908;DHT22;6014;47.690;9.130;2022-10-03T17:34:29;11.90;99.90
11908;DHT22;6014;47.690;9.130;2022-10-03T17:37:20;11.80;99.90
11908;DHT22;6014;47.690;9.130;2022-10-03T17:40:44;11.60;99.90
11908;DHT22;6014;47.690;9.130;2022-10-03T17:43:24;11.40;99.90
11908;DHT22;6014;47.690;9.130;2022-10-03T17:46:03;11.20;99.90
11908;DHT22;6014;47.690;9.130;2022-10-03T17:48:37;11.20;99.90
11908;DHT22;6014;47.690;9.130;2022-10-03T17:51:35;11.10;99.90
11908;DHT22;6014;47.690;9.130;2022-10-03T17:54:10;11.10;99.90
11908;DHT22;6014;47.690;9.130;2022-10-03T17:56:43;11.10;99.90
11908;DHT22;6014;47.690;9.130;2022-10-03T17:59:17;11.00;99.90
11908;DHT22;6014;47.690;9.130;2022-10-03T18:01:52;10.80;99.90
11908;DHT22;6014;47.690;9.130;2022-10-03T18:04:29;10.70;99.90
11908;DHT22;6014;47.690;9.130;2022-10-03T18:07:08;10.70;99.90
11908;DHT22;6014;47.690;9.130;2022-10-03T18:09:43;10.70;99.90
11908;DHT22;6014;47.690;9.130;2022-10-03T18:12:28;10.70;99.90
11908;DHT22;6014;47.690;9.130;2022-10-03T18:21:41;10.60;99.90
11908;DHT22;6014;47.690;9.130;2022-10-03T18:24:52;10.50;99.90
11908;DHT22;6014;47.690;9.130;2022-10-03T18:27:47;10.50;99.90
11908;DHT22;6014;47.690;9.130;2022-10-03T18:30:52;10.50;99.90
11908;DHT22;6014;47.690;9.130;2022-10-03T18:33:26;10.40;99.90
11908;DHT22;6014;47.690;9.130;2022-10-03T18:36:09;10.40;99.90
11908;DHT22;6014;47.690;9.130;2022-10-03T18:38:43;10.30;99.90
11908;DHT22;6014;47.690;9.130;2022-10-03T18:41:15;10.20;99.90
11908;DHT22;6014;47.690;9.130;2022-10-03T18:43:49;10.10;99.90
11908;DHT22;6014;47.690;9.130;2022-10-03T18:46:28;10.10;99.90
11908;DHT22;6014;47.690;9.130;2022-10-03T18:49:01;10.10;99.90
11908;DHT22;6014;47.690;9.130;2022-10-03T18:51:56;10.10;99.90
11908;DHT22;6014;47.690;9.130;2022-10-03T18:54:34;10.00;99.90
11908;DHT22;6014;47.690;9.130;2022-10-03T18:57:19;10.00;99.90
11908;DHT22;6014;47.690;9.130;2022-10-03T18:59:55;9.90;99.90
11908;DHT22;6014;47.690;9.130;2022-10-03T19:02:41;9.90;99.90
11908;DHT22;6014;47.690;9.130;2022-10-03T19:05:16;9.90;99.90
11908;DHT22;6014;47.690;9.130;2022-10-03T19:07:50;9.90;99.90
11908;DHT22;6014;47.690;9.130;2022-10-03T19:10:41;9.90;99.90
11908;DHT22;6014;47.690;9.130;2022-10-03T19:13:26;9.90;99.90
11908;DHT22;6014;47.690;9.130;2022-10-03T19:16:14;10.00;99.90
11908;DHT22;6014;47.690;9.130;2022-10-03T19:18:55;9.90;99.90
11908;DHT22;6014;47.690;9.130;2022-10-03T19:21:40;9.80;99.90
11908;DHT22;6014;47.690;9.130;2022-10-03T19:24:20;9.70;99.90
11908;DHT22;6014;47.690;9.130;2022-10-03T19:27:16;9.70;99.90
11908;DHT22;6014;47.690;9.130;2022-10-03T19:29:52;9.60;99.90
11908;DHT22;6014;47.690;9.130;2022-10-03T19:32:26;9.40;99.90
11908;DHT22;6014;47.690;9.130;2022-10-03T19:34:59;9.40;99.90
11908;DHT22;6014;47.690;9.130;2022-10-03T19:37:38;9.40;99.90
11908;DHT22;6014;47.690;9.130;2022-10-03T19:40:14;9.30;99.90
11908;DHT22;6014;47.690;9.130;2022-10-03T19:42:58;9.30;99.90
11908;DHT22;6014;47.690;9.130;2022-10-03T19:45:40;9.30;99.90
11908;DHT22;6014;47.690;9.130;2022-10-03T19:48:13;9.30;99.90
11908;DHT22;6014;47.690;9.130;2022-10-03T19:50:50;9.30;99.90
11908;DHT22;6014;47.690;9.130;2022-10-03T19:53:32;9.20;99.90
11908;DHT22;6014;47.690;9.130;2022-10-03T19:56:13;9.10;99.90
11908;DHT22;6014;47.690;9.130;2022-10-03T19:58:58;9.10;99.90
11908;DHT22;6014;47.690;9.130;2022-10-03T20:01:41;9.10;99.90
11908;DHT22;6014;47.690;9.130;2022-10-03T20:04:16;9.10;99.90
11908;DHT22;6014;47.690;9.130;2022-10-03T20:07:13;9.00;99.90
11908;DHT22;6014;47.690;9.130;2022-10-03T20:09:54;8.80;99.90
11908;DHT22;6014;47.690;9.130;2022-10-03T20:12:27;8.70;99.90
11908;DHT22;6014;47.690;9.130;2022-10-03T20:15:19;8.60;99.90
11908;DHT22;6014;47.690;9.130;2022-10-03T20:17:56;8.70;99.90
11908;DHT22;6014;47.690;9.130;2022-10-03T20:20:29;8.80;99.90
11908;DHT22;6014;47.690;9.130;2022-10-03T20:23:03;8.80;99.90
11908;DHT22;6014;47.690;9.130;2022-10-03T20:25:37;8.70;99.90
11908;DHT22;6014;47.690;9.130;2022-10-03T20:28:17;8.70;99.90
11908;DHT22;6014;47.690;9.130;2022-10-03T20:30:51;8.60;99.90
11908;DHT22;6014;47.690;9.130;2022-10-03T20:33:24;8.70;99.90
11908;DHT22;6014;47.690;9.130;2022-10-03T20:36:00;8.70;99.90
11908;DHT22;6014;47.690;9.130;2022-10-03T20:38:51;8.70;99.90
11908;DHT22;6014;47.690;9.130;2022-10-03T20:41:41;8.70;99.90
11908;DHT22;6014;47.690;9.130;2022-10-03T20:44:32;8.70;99.90
11908;DHT22;6014;47.690;9.130;2022-10-03T20:50:19;8.70;99.90
11908;DHT22;6014;47.690;9.130;2022-10-03T20:52:57;8.70;99.90
11908;DHT22;6014;47.690;9.130;2022-10-03T20:55:30;8.60;99.90
11908;DHT22;6014;47.690;9.130;2022-10-03T20:58:13;8.50;99.90
11908;DHT22;6014;47.690;9.130;2022-10-03T21:00:50;8.50;99.90
11908;DHT22;6014;47.690;9.130;2022-10-03T21:03:28;8.40;99.90
11908;DHT22;6014;47.690;9.130;2022-10-03T21:06:13;8.40;99.90
11908;DHT22;6014;47.690;9.130;2022-10-03T21:08:44;8.30;99.90
11908;DHT22;6014;47.690;9.130;2022-10-03T21:11:18;8.30;99.90
11908;DHT22;6014;47.690;9.130;2022-10-03T21:14:03;8.30;99.90
11908;DHT22;6014;47.690;9.130;2022-10-03T21:16:44;8.20;99.90
11908;DHT22;6014;47.690;9.130;2022-10-03T21:19:18;8.20;99.90